Time,TemperatureF,DewpointF,PressureIn,WindDirection,WindDirectionDegrees,WindSpeedMPH,WindSpeedGustMPH,Humidity,HourlyPrecipIn,Conditions,Clouds,dailyrainin,SoftwareType,DateUTC
2013-11-18 00:01:00,35.4,31.6,28.88,West,270,7.6,8.3,86,0.00,,,0.00,WUHU21623XXSP,2013-11-18 06:01:00,
2013-11-18 00:06:00,35.4,31.6,28.88,WNW,292,7.4,7.6,86,0.00,,,0.00,WUHU21623XXSP,2013-11-18 06:06:00,
2013-11-18 00:11:00,35.8,31.9,28.88,WNW,292,4.3,7.6,86,0.00,,,0.00,WUHU21623XXSP,2013-11-18 06:11:00,
2013-11-18 00:16:00,35.8,31.9,28.88,West,270,4.5,9.4,86,0.00,,,0.00,WUHU21623XXSP,2013-11-18 06:16:00,
2013-11-18 00:21:00,36.0,32.1,28.88,WNW,292,5.8,9.4,86,0.00,,,0.00,WUHU21623XXSP,2013-11-18 06:21:00,
2013-11-18 00:26:00,36.0,32.1,28.88,West,270,13.9,19.7,86,0.00,,,0.00,WUHU21623XXSP,2013-11-18 06:26:00,
2013-11-18 00:31:00,36.1,32.3,28.88,WNW,292,12.3,19.7,86,0.00,,,0.00,WUHU21623XXSP,2013-11-18 06:31:00,
2013-11-18 00:36:00,36.0,31.8,28.88,WNW,292,17.4,17.4,85,0.00,,,0.00,WUHU21623XXSP,2013-11-18 06:36:00,
2013-11-18 00:41:00,35.8,31.8,28.88,WNW,292,5.8,17.4,85,0.00,,,0.00,WUHU21623XXSP,2013-11-18 06:41:00,
2013-11-18 00:46:00,35.4,30.7,28.88,WNW,292,8.7,8.7,83,0.00,,,0.00,WUHU21623XXSP,2013-11-18 06:46:00,
2013-11-18 00:56:00,34.9,30.5,28.88,West,270,7.6,10.3,84,0.00,,,0.00,WUHU21623XXSP,2013-11-18 06:56:00,
2013-11-18 01:01:00,34.5,30.1,28.89,WSW,247,12.3,12.3,84,0.00,,,0.00,WUHU21623XXSP,2013-11-18 07:01:00,
2013-11-18 01:06:00,34.2,30.0,28.89,West,270,7.8,12.3,85,0.00,,,0.00,WUHU21623XXSP,2013-11-18 07:06:00,
2013-11-18 01:11:00,33.8,29.7,28.89,West,270,11.4,12.3,85,0.00,,,0.00,WUHU21623XXSP,2013-11-18 07:11:00,
2013-11-18 01:16:00,33.8,29.7,28.89,WNW,292,7.4,15.7,85,0.00,,,0.00,WUHU21623XXSP,2013-11-18 07:16:00,
2013-11-18 01:21:00,33.6,29.5,28.89,WNW,292,4.5,15.7,85,0.00,,,0.00,WUHU21623XXSP,2013-11-18 07:21:00,
2013-11-18 01:26:00,33.4,29.3,28.88,WNW,292,5.4,7.6,85,0.00,,,0.00,WUHU21623XXSP,2013-11-18 07:26:00,
2013-11-18 01:31:00,33.4,29.3,28.88,West,270,8.5,8.5,85,0.00,,,0.00,WUHU21623XXSP,2013-11-18 07:31:00,
2013-11-18 01:36:00,33.3,29.3,28.88,WNW,292,4.0,8.5,86,0.00,,,0.00,WUHU21623XXSP,2013-11-18 07:36:00,
2013-11-18 01:41:00,33.1,29.3,28.89,WNW,292,8.3,8.3,86,0.00,,,0.00,WUHU21623XXSP,2013-11-18 07:41:00,
2013-11-18 01:46:00,33.1,29.3,28.89,West,270,11.2,11.2,86,0.00,,,0.00,WUHU21623XXSP,2013-11-18 07:46:00,
2013-11-18 01:51:00,33.3,29.5,28.89,West,270,9.4,11.2,86,0.00,,,0.00,WUHU21623XXSP,2013-11-18 07:51:00,
2013-11-18 01:56:00,33.4,29.6,28.89,West,270,8.9,14.3,86,0.00,,,0.00,WUHU21623XXSP,2013-11-18 07:56:00,
2013-11-18 02:01:00,33.4,29.6,28.89,West,270,19.2,19.2,86,0.00,,,0.00,WUHU21623XXSP,2013-11-18 08:01:00,
2013-11-18 02:06:00,33.4,29.3,28.90,WNW,292,12.1,19.2,85,0.00,,,0.00,WUHU21623XXSP,2013-11-18 08:06:00,
2013-11-18 02:11:00,33.3,29.2,28.91,West,270,9.2,19.2,85,0.00,,,0.00,WUHU21623XXSP,2013-11-18 08:11:00,
2013-11-18 02:16:00,33.1,29.0,28.91,WNW,292,8.5,14.3,85,0.00,,,0.00,WUHU21623XXSP,2013-11-18 08:16:00,
2013-11-18 02:21:00,33.1,29.0,28.91,WNW,292,12.5,12.5,85,0.00,,,0.00,WUHU21623XXSP,2013-11-18 08:21:00,
2013-11-18 02:26:00,33.3,28.9,28.92,WNW,292,12.3,12.5,84,0.00,,,0.00,WUHU21623XXSP,2013-11-18 08:26:00,
2013-11-18 02:32:00,33.1,28.7,28.92,WNW,292,7.4,13.0,84,0.00,,,0.00,WUHU21623XXSP,2013-11-18 08:32:00,
2013-11-18 02:37:00,33.1,29.0,28.93,WNW,292,8.9,13.0,85,0.00,,,0.00,WUHU21623XXSP,2013-11-18 08:37:00,
2013-11-18 02:42:00,33.1,29.0,28.93,WNW,292,12.3,12.3,85,0.00,,,0.00,WUHU21623XXSP,2013-11-18 08:42:00,
2013-11-18 02:47:00,33.1,29.0,28.93,WNW,292,11.9,12.3,85,0.00,,,0.00,WUHU21623XXSP,2013-11-18 08:47:00,
2013-11-18 02:52:00,33.1,29.0,28.93,West,270,7.6,11.9,85,0.00,,,0.00,WUHU21623XXSP,2013-11-18 08:52:00,
2013-11-18 02:57:00,33.1,29.0,28.93,WNW,292,9.4,9.4,85,0.00,,,0.00,WUHU21623XXSP,2013-11-18 08:57:00,
2013-11-18 03:02:00,33.1,29.0,28.93,WNW,292,9.4,9.4,85,0.00,,,0.00,WUHU21623XXSP,2013-11-18 09:02:00,
2013-11-18 03:07:00,33.1,29.0,28.93,West,270,8.3,9.4,85,0.00,,,0.00,WUHU21623XXSP,2013-11-18 09:07:00,
2013-11-18 03:12:00,33.1,29.0,28.94,WNW,292,7.8,11.2,85,0.00,,,0.00,WUHU21623XXSP,2013-11-18 09:12:00,
2013-11-18 03:17:00,33.1,29.0,28.94,WNW,292,7.8,11.2,85,0.00,,,0.00,WUHU21623XXSP,2013-11-18 09:17:00,
2013-11-18 03:22:00,33.1,29.0,28.94,West,270,10.3,10.3,85,0.00,,,0.00,WUHU21623XXSP,2013-11-18 09:22:00,
2013-11-18 03:27:00,33.1,28.7,28.94,WNW,292,5.8,11.9,84,0.00,,,0.00,WUHU21623XXSP,2013-11-18 09:27:00,
2013-11-18 03:32:00,33.1,28.7,28.94,WSW,247,16.8,16.8,84,0.00,,,0.00,WUHU21623XXSP,2013-11-18 09:32:00,
2013-11-18 03:37:00,33.1,28.7,28.94,WNW,292,15.9,16.8,84,0.00,,,0.00,WUHU21623XXSP,2013-11-18 09:37:00,
2013-11-18 03:42:00,33.1,28.7,28.94,WNW,292,13.4,15.9,84,0.00,,,0.00,WUHU21623XXSP,2013-11-18 09:42:00,
2013-11-18 03:47:00,33.1,28.7,28.95,West,270,7.6,13.4,84,0.00,,,0.00,WUHU21623XXSP,2013-11-18 09:47:00,
2013-11-18 03:52:00,33.1,28.7,28.95,West,270,11.6,13.4,84,0.00,,,0.00,WUHU21623XXSP,2013-11-18 09:52:00,
2013-11-18 03:57:00,33.1,28.7,28.95,West,270,8.5,11.6,84,0.00,,,0.00,WUHU21623XXSP,2013-11-18 09:57:00,
2013-11-18 04:02:00,33.1,28.7,28.95,West,270,9.6,9.6,84,0.00,,,0.00,WUHU21623XXSP,2013-11-18 10:02:00,
2013-11-18 04:07:00,33.1,28.7,28.95,West,270,11.2,11.2,83,0.00,,,0.00,WUHU21623XXSP,2013-11-18 10:07:00,
2013-11-18 04:12:00,33.1,28.4,28.96,West,270,6.7,11.2,83,0.00,,,0.00,WUHU21623XXSP,2013-11-18 10:12:00,
2013-11-18 04:17:00,32.9,28.6,28.96,West,270,10.3,11.2,84,0.00,,,0.00,WUHU21623XXSP,2013-11-18 10:17:00,
2013-11-18 04:22:00,33.1,28.7,28.96,WNW,292,9.6,11.2,84,0.00,,,0.00,WUHU21623XXSP,2013-11-18 10:22:00,
2013-11-18 04:27:00,32.9,28.6,28.96,West,270,15.4,15.4,84,0.00,,,0.00,WUHU21623XXSP,2013-11-18 10:27:00,
2013-11-18 04:32:00,32.9,28.6,28.96,WSW,247,10.1,15.4,83,0.00,,,0.00,WUHU21623XXSP,2013-11-18 10:32:00,
2013-11-18 04:37:00,32.7,28.3,28.97,WNW,292,11.6,15.4,83,0.00,,,0.00,WUHU21623XXSP,2013-11-18 10:37:00,
2013-11-18 04:42:00,32.7,28.1,28.97,West,270,9.6,11.6,83,0.00,,,0.00,WUHU21623XXSP,2013-11-18 10:42:00,
2013-11-18 04:47:00,32.7,28.1,28.97,WNW,292,10.5,11.6,83,0.00,,,0.00,WUHU21623XXSP,2013-11-18 10:47:00,
2013-11-18 04:52:00,32.7,28.1,28.97,West,270,13.0,13.0,83,0.00,,,0.00,WUHU21623XXSP,2013-11-18 10:52:00,
2013-11-18 04:57:00,32.7,28.1,28.97,WNW,292,5.8,13.4,83,0.00,,,0.00,WUHU21623XXSP,2013-11-18 10:57:00,
2013-11-18 05:02:00,32.7,28.1,28.98,WNW,292,5.8,13.4,82,0.00,,,0.00,WUHU21623XXSP,2013-11-18 11:02:00,
2013-11-18 05:07:00,32.7,27.8,28.98,West,270,6.9,6.9,82,0.00,,,0.00,WUHU21623XXSP,2013-11-18 11:07:00,
2013-11-18 05:12:00,32.9,28.0,28.99,WNW,292,4.9,14.3,82,0.00,,,0.00,WUHU21623XXSP,2013-11-18 11:12:00,
2013-11-18 05:17:00,32.7,27.8,28.99,WNW,292,4.7,14.3,82,0.00,,,0.00,WUHU21623XXSP,2013-11-18 11:17:00,
2013-11-18 05:22:00,32.7,27.8,28.98,WNW,292,8.9,8.9,82,0.00,,,0.00,WUHU21623XXSP,2013-11-18 11:22:00,
2013-11-18 05:27:00,32.7,28.1,28.98,WNW,292,14.8,14.8,83,0.00,,,0.00,WUHU21623XXSP,2013-11-18 11:27:00,
2013-11-18 05:31:00,32.5,27.9,28.98,WNW,292,6.9,14.8,83,0.00,,,0.00,WUHU21623XXSP,2013-11-18 11:31:00,
2013-11-18 05:36:00,32.4,27.5,28.98,WNW,292,14.3,14.3,82,0.00,,,0.00,WUHU21623XXSP,2013-11-18 11:36:00,
2013-11-18 05:41:00,32.4,27.5,28.98,WNW,292,6.7,14.3,83,0.00,,,0.00,WUHU21623XXSP,2013-11-18 11:41:00,
2013-11-18 05:46:00,32.2,27.6,28.99,WNW,292,10.7,14.3,83,0.00,,,0.00,WUHU21623XXSP,2013-11-18 11:46:00,
2013-11-18 05:51:00,32.2,27.3,28.99,WNW,292,8.9,11.4,82,0.00,,,0.00,WUHU21623XXSP,2013-11-18 11:51:00,
2013-11-18 05:56:00,31.8,27.3,28.99,WNW,292,10.1,11.4,83,0.00,,,0.00,WUHU21623XXSP,2013-11-18 11:56:00,
2013-11-18 06:01:00,31.8,27.3,28.99,WNW,292,7.4,14.3,83,0.00,,,0.00,WUHU21623XXSP,2013-11-18 12:01:00,
2013-11-18 06:06:00,31.8,27.3,28.99,WNW,292,9.2,14.3,83,0.00,,,0.00,WUHU21623XXSP,2013-11-18 12:06:00,
2013-11-18 06:11:00,31.5,26.9,29.00,WNW,292,17.2,17.7,83,0.00,,,0.00,WUHU21623XXSP,2013-11-18 12:11:00,
2013-11-18 06:16:00,31.3,26.9,29.00,WNW,292,12.1,17.7,83,0.00,,,0.00,WUHU21623XXSP,2013-11-18 12:16:00,
2013-11-18 06:21:00,31.1,26.3,29.01,WNW,292,9.4,17.2,82,0.00,,,0.00,WUHU21623XXSP,2013-11-18 12:21:00,
2013-11-18 06:26:00,30.9,26.4,29.01,WNW,292,9.6,10.1,83,0.00,,,0.00,WUHU21623XXSP,2013-11-18 12:26:00,
2013-11-18 06:32:00,31.1,26.4,29.01,WNW,292,8.1,9.6,83,0.00,,,0.00,WUHU21623XXSP,2013-11-18 12:32:00,
2013-11-18 06:37:00,31.1,26.6,29.02,West,270,6.9,13.0,83,0.00,,,0.00,WUHU21623XXSP,2013-11-18 12:37:00,
2013-11-18 06:41:00,31.1,26.6,29.02,WNW,292,10.1,13.0,83,0.00,,,0.00,WUHU21623XXSP,2013-11-18 12:41:00,
2013-11-18 06:46:00,31.1,26.6,29.02,WNW,292,10.1,10.1,83,0.00,,,0.00,WUHU21623XXSP,2013-11-18 12:46:00,
2013-11-18 06:51:00,31.1,26.6,29.02,WNW,292,4.5,10.1,83,0.00,,,0.00,WUHU21623XXSP,2013-11-18 12:51:00,
2013-11-18 06:56:00,31.1,26.6,29.02,WNW,292,8.3,10.3,83,0.00,,,0.00,WUHU21623XXSP,2013-11-18 12:56:00,
2013-11-18 07:01:00,31.1,26.6,29.03,WNW,292,0.0,10.3,83,0.00,,,0.00,WUHU21623XXSP,2013-11-18 13:01:00,
2013-11-18 07:07:00,31.1,26.6,29.03,WNW,292,9.6,9.6,83,0.00,,,0.00,WUHU21623XXSP,2013-11-18 13:07:00,
2013-11-18 07:11:00,31.3,26.7,29.03,WNW,292,8.1,9.6,83,0.00,,,0.00,WUHU21623XXSP,2013-11-18 13:11:00,
2013-11-18 07:16:00,31.1,26.6,29.03,WNW,292,7.8,9.6,83,0.00,,,0.00,WUHU21623XXSP,2013-11-18 13:16:00,
2013-11-18 07:28:00,31.1,26.3,29.04,WNW,292,6.0,9.4,82,0.00,,,0.00,WUHU21623XXSP,2013-11-18 13:28:00,
2013-11-18 07:33:00,30.7,25.9,29.04,WNW,292,8.9,10.1,82,0.00,,,0.00,WUHU21623XXSP,2013-11-18 13:33:00,
2013-11-18 07:38:00,30.9,26.4,29.03,West,270,7.4,10.3,83,0.00,,,0.00,WUHU21623XXSP,2013-11-18 13:38:00,
2013-11-18 07:43:00,30.7,26.2,29.03,WNW,292,10.5,10.5,83,0.00,,,0.00,WUHU21623XXSP,2013-11-18 13:43:00,
2013-11-18 07:48:00,30.7,26.2,29.04,WNW,292,8.5,10.5,83,0.00,,,0.00,WUHU21623XXSP,2013-11-18 13:48:00,
2013-11-18 07:53:00,30.7,26.2,29.04,WNW,292,11.4,11.4,83,0.00,,,0.00,WUHU21623XXSP,2013-11-18 13:53:00,
2013-11-18 07:58:00,30.6,26.0,29.04,WNW,292,17.9,17.9,83,0.00,,,0.00,WUHU21623XXSP,2013-11-18 13:58:00,
2013-11-18 08:03:00,30.6,26.0,29.04,WNW,292,17.9,17.9,83,0.00,,,0.00,WUHU21623XXSP,2013-11-18 14:03:00,
2013-11-18 08:08:00,30.6,25.7,29.04,WNW,292,10.1,17.9,82,0.00,,,0.00,WUHU21623XXSP,2013-11-18 14:08:00,
2013-11-18 08:13:00,30.6,25.7,29.05,WNW,292,10.5,14.3,82,0.00,,,0.00,WUHU21623XXSP,2013-11-18 14:13:00,
2013-11-18 08:18:00,30.7,25.7,29.05,WNW,292,13.6,14.3,82,0.00,,,0.00,WUHU21623XXSP,2013-11-18 14:18:00,
2013-11-18 08:23:00,30.7,25.7,29.06,WNW,292,9.8,13.6,81,0.00,,,0.00,WUHU21623XXSP,2013-11-18 14:23:00,
2013-11-18 08:28:00,30.9,25.6,29.06,WNW,292,13.9,13.9,81,0.00,,,0.00,WUHU21623XXSP,2013-11-18 14:28:00,
2013-11-18 08:33:00,30.9,25.8,29.06,WNW,292,13.9,13.9,81,0.00,,,0.00,WUHU21623XXSP,2013-11-18 14:33:00,
2013-11-18 08:38:00,31.1,25.8,29.06,WNW,292,10.1,13.9,81,0.00,,,0.00,WUHU21623XXSP,2013-11-18 14:38:00,
2013-11-18 08:43:00,31.1,26.0,29.06,West,270,9.2,10.1,81,0.00,,,0.00,WUHU21623XXSP,2013-11-18 14:43:00,
2013-11-18 08:48:00,31.3,26.2,29.07,NW,315,12.1,12.1,81,0.00,,,0.00,WUHU21623XXSP,2013-11-18 14:48:00,
2013-11-18 08:53:00,31.3,26.2,29.07,WNW,292,13.2,13.2,81,0.00,,,0.00,WUHU21623XXSP,2013-11-18 14:53:00,
2013-11-18 08:58:00,31.6,26.5,29.07,WNW,292,4.9,13.2,81,0.00,,,0.00,WUHU21623XXSP,2013-11-18 14:58:00,
2013-11-18 09:03:00,31.6,26.2,29.07,WNW,292,9.2,9.8,80,0.00,,,0.00,WUHU21623XXSP,2013-11-18 15:03:00,
2013-11-18 09:08:00,31.8,26.2,29.07,WNW,292,8.3,9.2,80,0.00,,,0.00,WUHU21623XXSP,2013-11-18 15:08:00,
2013-11-18 09:13:00,31.8,26.4,29.07,WNW,292,8.3,14.3,80,0.00,,,0.00,WUHU21623XXSP,2013-11-18 15:13:00,
2013-11-18 09:18:00,31.8,26.4,29.08,WNW,292,6.3,14.3,80,0.00,,,0.00,WUHU21623XXSP,2013-11-18 15:18:00,
2013-11-18 09:23:00,31.8,26.4,29.08,WNW,292,8.7,8.7,80,0.00,,,0.00,WUHU21623XXSP,2013-11-18 15:23:00,
2013-11-18 09:28:00,32.2,26.8,29.08,WNW,292,10.7,10.7,80,0.00,,,0.00,WUHU21623XXSP,2013-11-18 15:28:00,
2013-11-18 09:33:00,32.4,26.6,29.09,WNW,292,9.6,10.7,79,0.00,,,0.00,WUHU21623XXSP,2013-11-18 15:33:00,
2013-11-18 09:38:00,32.4,26.6,29.08,WNW,292,9.6,10.7,79,0.00,,,0.00,WUHU21623XXSP,2013-11-18 15:38:00,
2013-11-18 09:43:00,32.4,26.6,29.09,WNW,292,15.0,15.0,79,0.00,,,0.00,WUHU21623XXSP,2013-11-18 15:43:00,
2013-11-18 09:48:00,32.5,26.8,29.09,WNW,292,9.6,15.0,79,0.00,,,0.00,WUHU21623XXSP,2013-11-18 15:48:00,
2013-11-18 09:51:00,32.5,26.8,29.10,WNW,292,12.3,15.0,79,0.00,,,0.00,WUHU21623XXSP,2013-11-18 15:51:00,
2013-11-18 09:56:00,32.7,26.9,29.10,WNW,292,7.2,12.3,79,0.00,,,0.00,WUHU21623XXSP,2013-11-18 15:56:00,
2013-11-18 10:01:00,32.9,27.1,29.10,WNW,292,8.3,11.9,79,0.00,,,0.00,WUHU21623XXSP,2013-11-18 16:01:00,
2013-11-18 10:06:00,33.1,27.2,29.10,WNW,292,8.5,8.5,79,0.00,,,0.00,WUHU21623XXSP,2013-11-18 16:06:00,
2013-11-18 10:11:00,33.6,27.6,29.10,West,270,14.3,14.3,78,0.00,,,0.00,WUHU21623XXSP,2013-11-18 16:11:00,
2013-11-18 10:16:00,33.4,27.2,29.11,West,270,6.7,14.3,78,0.00,,,0.00,WUHU21623XXSP,2013-11-18 16:16:00,
2013-11-18 10:21:00,33.6,27.4,29.11,WNW,292,7.6,13.9,78,0.00,,,0.00,WUHU21623XXSP,2013-11-18 16:21:00,
2013-11-18 10:26:00,33.6,27.4,29.11,WNW,292,8.7,13.9,78,0.00,,,0.00,WUHU21623XXSP,2013-11-18 16:26:00,
2013-11-18 10:31:00,34.0,28.1,29.11,West,270,8.7,8.9,79,0.00,,,0.00,WUHU21623XXSP,2013-11-18 16:31:00,
2013-11-18 10:36:00,34.2,27.9,29.12,West,270,9.8,9.8,78,0.00,,,0.00,WUHU21623XXSP,2013-11-18 16:36:00,
2013-11-18 10:41:00,34.3,28.1,29.12,WNW,292,7.6,11.4,78,0.00,,,0.00,WUHU21623XXSP,2013-11-18 16:41:00,
2013-11-18 10:46:00,34.3,28.1,29.12,WNW,292,8.5,11.4,78,0.00,,,0.00,WUHU21623XXSP,2013-11-18 16:46:00,
2013-11-18 10:51:00,34.3,28.1,29.12,WNW,292,6.3,11.2,77,0.00,,,0.00,WUHU21623XXSP,2013-11-18 16:51:00,
2013-11-18 10:56:00,34.3,27.8,29.12,WNW,292,5.4,11.9,78,0.00,,,0.00,WUHU21623XXSP,2013-11-18 16:56:00,
2013-11-18 11:01:00,34.7,28.5,29.12,West,270,2.5,11.9,78,0.00,,,0.00,WUHU21623XXSP,2013-11-18 17:01:00,
2013-11-18 11:06:00,34.9,28.7,29.13,WNW,292,6.0,6.0,78,0.00,,,0.00,WUHU21623XXSP,2013-11-18 17:06:00,
2013-11-18 11:11:00,34.9,28.3,29.13,WNW,292,9.2,9.8,77,0.00,,,0.00,WUHU21623XXSP,2013-11-18 17:11:00,
2013-11-18 11:16:00,34.7,27.8,29.13,WNW,292,11.4,14.5,76,0.00,,,0.00,WUHU21623XXSP,2013-11-18 17:16:00,
2013-11-18 11:21:00,34.7,27.8,29.13,West,270,6.0,14.5,76,0.00,,,0.00,WUHU21623XXSP,2013-11-18 17:21:00,
2013-11-18 11:26:00,35.1,28.2,29.13,WNW,292,10.5,10.5,76,0.00,,,0.00,WUHU21623XXSP,2013-11-18 17:26:00,
2013-11-18 11:31:00,35.1,28.2,29.13,WNW,292,10.1,10.5,76,0.00,,,0.00,WUHU21623XXSP,2013-11-18 17:31:00,
2013-11-18 11:36:00,35.2,28.4,29.13,WNW,292,8.5,10.5,76,0.00,,,0.00,WUHU21623XXSP,2013-11-18 17:36:00,
2013-11-18 11:41:00,35.4,28.2,29.13,West,270,23.9,23.9,75,0.00,,,0.00,WUHU21623XXSP,2013-11-18 17:41:00,
2013-11-18 11:46:00,35.8,28.3,29.14,WNW,292,13.0,23.9,74,0.00,,,0.00,WUHU21623XXSP,2013-11-18 17:46:00,
2013-11-18 11:51:00,35.8,28.3,29.14,WNW,292,8.1,14.8,74,0.00,,,0.00,WUHU21623XXSP,2013-11-18 17:51:00,
2013-11-18 11:56:00,35.8,28.6,29.14,WNW,292,6.3,13.0,75,0.00,,,0.00,WUHU21623XXSP,2013-11-18 17:56:00,
2013-11-18 12:01:00,36.0,28.4,29.14,West,270,11.2,13.9,74,0.00,,,0.00,WUHU21623XXSP,2013-11-18 18:01:00,
2013-11-18 12:06:00,36.1,28.6,29.14,WNW,292,8.3,13.9,74,0.00,,,0.00,WUHU21623XXSP,2013-11-18 18:06:00,
2013-11-18 12:11:00,36.0,27.8,29.14,WNW,292,8.5,10.5,72,0.00,,,0.00,WUHU21623XXSP,2013-11-18 18:11:00,
2013-11-18 12:16:00,36.1,28.3,29.15,West,270,6.0,10.5,73,0.00,,,0.00,WUHU21623XXSP,2013-11-18 18:16:00,
2013-11-18 12:21:00,36.1,28.3,29.14,WNW,292,10.1,10.1,73,0.00,,,0.00,WUHU21623XXSP,2013-11-18 18:21:00,
2013-11-18 12:26:00,36.3,28.5,29.15,West,270,6.9,10.1,73,0.00,,,0.00,WUHU21623XXSP,2013-11-18 18:26:00,
2013-11-18 12:31:00,36.7,29.2,29.15,WSW,247,18.6,18.6,74,0.00,,,0.00,WUHU21623XXSP,2013-11-18 18:31:00,
2013-11-18 12:36:00,37.0,29.2,29.15,West,270,6.7,18.6,73,0.00,,,0.00,WUHU21623XXSP,2013-11-18 18:36:00,
2013-11-18 12:41:00,37.0,29.2,29.15,WNW,292,10.1,10.1,73,0.00,,,0.00,WUHU21623XXSP,2013-11-18 18:41:00,
2013-11-18 12:46:00,37.0,28.9,29.16,WNW,292,9.4,10.1,72,0.00,,,0.00,WUHU21623XXSP,2013-11-18 18:46:00,
2013-11-18 12:51:00,37.2,28.9,29.16,WNW,292,11.0,11.0,72,0.00,,,0.00,WUHU21623XXSP,2013-11-18 18:51:00,
2013-11-18 12:56:00,37.0,28.5,29.16,WNW,292,10.3,11.0,71,0.00,,,0.00,WUHU21623XXSP,2013-11-18 18:56:00,
2013-11-18 13:01:00,36.9,28.4,29.16,West,270,6.3,19.5,71,0.00,,,0.00,WUHU21623XXSP,2013-11-18 19:01:00,
2013-11-18 13:06:00,37.0,28.5,29.16,WNW,292,11.2,19.5,71,0.00,,,0.00,WUHU21623XXSP,2013-11-18 19:06:00,
2013-11-18 13:11:00,37.0,28.2,29.17,West,270,15.0,15.0,70,0.00,,,0.00,WUHU21623XXSP,2013-11-18 19:11:00,
2013-11-18 13:16:00,37.2,28.4,29.16,WNW,292,7.6,15.2,70,0.00,,,0.00,WUHU21623XXSP,2013-11-18 19:16:00,
2013-11-18 13:21:00,37.2,28.0,29.16,WNW,292,7.2,15.2,69,0.00,,,0.00,WUHU21623XXSP,2013-11-18 19:21:00,
2013-11-18 13:26:00,37.2,28.4,29.17,WNW,292,10.3,12.8,70,0.00,,,0.00,WUHU21623XXSP,2013-11-18 19:26:00,
2013-11-18 13:31:00,37.2,28.0,29.17,WNW,292,11.2,12.8,69,0.00,,,0.00,WUHU21623XXSP,2013-11-18 19:31:00,
2013-11-18 13:36:00,37.2,28.0,29.17,WNW,292,7.8,11.2,69,0.00,,,0.00,WUHU21623XXSP,2013-11-18 19:36:00,
2013-11-18 13:41:00,37.2,28.4,29.17,WNW,292,8.1,11.0,70,0.00,,,0.00,WUHU21623XXSP,2013-11-18 19:41:00,
2013-11-18 13:46:00,37.4,27.8,29.17,WNW,292,13.0,13.0,68,0.00,,,0.00,WUHU21623XXSP,2013-11-18 19:46:00,
2013-11-18 13:51:00,37.4,27.8,29.17,WNW,292,12.3,13.0,68,0.00,,,0.00,WUHU21623XXSP,2013-11-18 19:51:00,
2013-11-18 13:56:00,37.6,28.0,29.17,WNW,292,9.2,12.3,68,0.00,,,0.00,WUHU21623XXSP,2013-11-18 19:56:00,
2013-11-18 14:01:00,37.6,28.0,29.17,WNW,292,12.5,12.5,68,0.00,,,0.00,WUHU21623XXSP,2013-11-18 20:01:00,
2013-11-18 14:06:00,37.6,27.6,29.17,WNW,292,8.5,16.1,67,0.00,,,0.00,WUHU21623XXSP,2013-11-18 20:06:00,
2013-11-18 14:11:00,37.6,27.6,29.18,WNW,292,8.1,16.1,68,0.00,,,0.00,WUHU21623XXSP,2013-11-18 20:11:00,
2013-11-18 14:16:00,37.6,28.0,29.17,WNW,292,7.6,8.1,68,0.00,,,0.00,WUHU21623XXSP,2013-11-18 20:16:00,
2013-11-18 14:21:00,37.2,27.6,29.18,WNW,292,6.0,7.6,68,0.00,,,0.00,WUHU21623XXSP,2013-11-18 20:21:00,
2013-11-18 14:26:00,37.4,27.8,29.17,WNW,292,6.9,7.6,68,0.00,,,0.00,WUHU21623XXSP,2013-11-18 20:26:00,
2013-11-18 14:31:00,37.2,27.6,29.17,WNW,292,6.0,7.8,68,0.00,,,0.00,WUHU21623XXSP,2013-11-18 20:31:00,
2013-11-18 14:36:00,37.4,27.6,29.18,WNW,292,4.9,7.8,68,0.00,,,0.00,WUHU21623XXSP,2013-11-18 20:36:00,
2013-11-18 14:41:00,37.4,27.8,29.18,WNW,292,10.1,10.1,68,0.00,,,0.00,WUHU21623XXSP,2013-11-18 20:41:00,
2013-11-18 14:46:00,37.4,27.4,29.18,WNW,292,8.9,11.2,67,0.00,,,0.00,WUHU21623XXSP,2013-11-18 20:46:00,
2013-11-18 14:51:00,37.2,27.6,29.18,WNW,292,8.7,11.2,68,0.00,,,0.00,WUHU21623XXSP,2013-11-18 20:51:00,
2013-11-18 14:56:00,37.2,27.6,29.18,WNW,292,10.1,10.1,68,0.00,,,0.00,WUHU21623XXSP,2013-11-18 20:56:00,
2013-11-18 15:01:00,37.2,27.6,29.19,WNW,292,5.8,10.1,68,0.00,,,0.00,WUHU21623XXSP,2013-11-18 21:01:00,
2013-11-18 15:06:00,37.2,27.6,29.18,WNW,292,8.1,8.1,68,0.00,,,0.00,WUHU21623XXSP,2013-11-18 21:06:00,
2013-11-18 15:11:00,37.2,27.6,29.19,WNW,292,8.9,8.9,68,0.00,,,0.00,WUHU21623XXSP,2013-11-18 21:11:00,
2013-11-18 15:16:00,37.2,27.6,29.19,WNW,292,5.1,8.9,68,0.00,,,0.00,WUHU21623XXSP,2013-11-18 21:16:00,
2013-11-18 15:21:00,37.0,27.5,29.19,WNW,292,7.6,8.7,68,0.00,,,0.00,WUHU21623XXSP,2013-11-18 21:21:00,
2013-11-18 15:26:00,37.0,27.5,29.19,West,270,7.4,8.3,68,0.00,,,0.00,WUHU21623XXSP,2013-11-18 21:26:00,
2013-11-18 15:31:00,36.9,27.3,29.19,WNW,292,2.7,8.3,68,0.00,,,0.00,WUHU21623XXSP,2013-11-18 21:31:00,
2013-11-18 15:36:00,36.7,27.3,29.19,WNW,292,6.0,9.2,68,0.00,,,0.00,WUHU21623XXSP,2013-11-18 21:36:00,
2013-11-18 15:41:00,36.7,27.1,29.19,WNW,292,4.0,9.2,68,0.00,,,0.00,WUHU21623XXSP,2013-11-18 21:41:00,
2013-11-18 15:46:00,36.7,26.9,29.20,WNW,292,9.6,9.6,68,0.00,,,0.00,WUHU21623XXSP,2013-11-18 21:46:00,
2013-11-18 15:51:00,36.5,26.9,29.19,WNW,292,8.9,9.6,68,0.00,,,0.00,WUHU21623XXSP,2013-11-18 21:51:00,
2013-11-18 15:56:00,36.3,26.8,29.20,WNW,292,6.7,8.9,68,0.00,,,0.00,WUHU21623XXSP,2013-11-18 21:56:00,
2013-11-18 16:01:00,36.1,26.9,29.20,West,270,3.1,8.9,69,0.00,,,0.00,WUHU21623XXSP,2013-11-18 22:01:00,
2013-11-18 16:06:00,36.0,26.9,29.20,West,270,0.0,6.9,69,0.00,,,0.00,WUHU21623XXSP,2013-11-18 22:06:00,
2013-11-18 16:11:00,35.8,27.0,29.20,West,270,4.0,5.8,70,0.00,,,0.00,WUHU21623XXSP,2013-11-18 22:11:00,
2013-11-18 16:16:00,35.4,26.2,29.21,WNW,292,4.9,5.8,69,0.00,,,0.00,WUHU21623XXSP,2013-11-18 22:16:00,
2013-11-18 16:21:00,35.2,26.4,29.21,WNW,292,3.6,4.9,70,0.00,,,0.00,WUHU21623XXSP,2013-11-18 22:21:00,
2013-11-18 16:26:00,34.9,26.1,29.21,WNW,292,0.0,4.9,70,0.00,,,0.00,WUHU21623XXSP,2013-11-18 22:26:00,
2013-11-18 16:31:00,34.5,26.0,29.21,WNW,292,0.0,0.0,71,0.00,,,0.00,WUHU21623XXSP,2013-11-18 22:31:00,
2013-11-18 16:36:00,34.3,25.8,29.21,WNW,292,4.7,4.7,71,0.00,,,0.00,WUHU21623XXSP,2013-11-18 22:36:00,
2013-11-18 16:41:00,33.6,25.5,29.21,WNW,292,0.0,4.7,72,0.00,,,0.00,WUHU21623XXSP,2013-11-18 22:41:00,
2013-11-18 16:46:00,33.3,25.1,29.21,WNW,292,0.0,4.3,72,0.00,,,0.00,WUHU21623XXSP,2013-11-18 22:46:00,
2013-11-18 16:51:00,32.7,25.0,29.21,WNW,292,0.0,0.0,73,0.00,,,0.00,WUHU21623XXSP,2013-11-18 22:51:00,
2013-11-18 16:56:00,31.8,24.5,29.20,WNW,292,0.0,0.0,73,0.00,,,0.00,WUHU21623XXSP,2013-11-18 22:56:00,
2013-11-18 17:01:00,31.6,24.5,29.20,WNW,292,0.0,0.0,74,0.00,,,0.00,WUHU21623XXSP,2013-11-18 23:01:00,
2013-11-18 17:06:00,31.3,24.3,29.20,WNW,292,0.0,0.0,75,0.00,,,0.00,WUHU21623XXSP,2013-11-18 23:06:00,
2013-11-18 17:11:00,30.9,23.9,29.21,WNW,292,0.0,0.0,75,0.00,,,0.00,WUHU21623XXSP,2013-11-18 23:11:00,
2013-11-18 17:16:00,30.7,23.7,29.21,WNW,292,0.0,0.0,75,0.00,,,0.00,WUHU21623XXSP,2013-11-18 23:16:00,
2013-11-18 17:21:00,30.6,23.9,29.21,WNW,292,0.0,0.0,76,0.00,,,0.00,WUHU21623XXSP,2013-11-18 23:21:00,
2013-11-18 17:26:00,30.2,23.7,29.21,WNW,292,0.0,0.0,76,0.00,,,0.00,WUHU21623XXSP,2013-11-18 23:26:00,
2013-11-18 17:31:00,30.0,23.6,29.21,WNW,292,0.0,0.0,77,0.00,,,0.00,WUHU21623XXSP,2013-11-18 23:31:00,
2013-11-18 17:36:00,30.0,23.6,29.21,WNW,292,0.0,0.0,77,0.00,,,0.00,WUHU21623XXSP,2013-11-18 23:36:00,
2013-11-18 17:41:00,29.8,23.8,29.21,WNW,292,0.0,0.0,78,0.00,,,0.00,WUHU21623XXSP,2013-11-18 23:41:00,
2013-11-18 17:46:00,29.7,23.6,29.21,West,270,0.0,0.0,78,0.00,,,0.00,WUHU21623XXSP,2013-11-18 23:46:00,
2013-11-18 17:51:00,29.7,23.9,29.21,West,270,0.0,0.0,79,0.00,,,0.00,WUHU21623XXSP,2013-11-18 23:51:00,
2013-11-18 17:56:00,29.1,23.4,29.22,West,270,0.0,0.0,79,0.00,,,0.00,WUHU21623XXSP,2013-11-18 23:56:00,
2013-11-18 18:01:00,28.9,23.2,29.21,West,270,0.0,0.0,79,0.00,,,0.00,WUHU21623XXSP,2013-11-19 00:01:00,
2013-11-18 18:06:00,28.9,23.5,29.22,WNW,292,0.0,0.0,80,0.00,,,0.00,WUHU21623XXSP,2013-11-19 00:06:00,
2013-11-18 18:11:00,28.8,23.4,29.22,WNW,292,0.0,0.0,80,0.00,,,0.00,WUHU21623XXSP,2013-11-19 00:11:00,
2013-11-18 18:16:00,28.6,23.2,29.22,West,270,0.0,0.0,80,0.00,,,0.00,WUHU21623XXSP,2013-11-19 00:16:00,
2013-11-18 18:21:00,28.6,23.2,29.22,West,270,0.0,0.0,80,0.00,,,0.00,WUHU21623XXSP,2013-11-19 00:21:00,
2013-11-18 18:26:00,28.6,23.5,29.23,West,270,0.0,0.0,81,0.00,,,0.00,WUHU21623XXSP,2013-11-19 00:26:00,
2013-11-18 18:31:00,28.6,23.5,29.22,West,270,0.0,0.0,81,0.00,,,0.00,WUHU21623XXSP,2013-11-19 00:31:00,
2013-11-18 18:36:00,28.6,23.5,29.23,West,270,0.0,0.0,81,0.00,,,0.00,WUHU21623XXSP,2013-11-19 00:36:00,
2013-11-18 18:41:00,28.4,23.5,29.23,WNW,292,0.0,0.0,81,0.00,,,0.00,WUHU21623XXSP,2013-11-19 00:41:00,
2013-11-18 18:46:00,28.2,23.1,29.23,WNW,292,0.0,0.0,81,0.00,,,0.00,WUHU21623XXSP,2013-11-19 00:46:00,
2013-11-18 18:51:00,28.2,23.1,29.23,WNW,292,0.0,0.0,81,0.00,,,0.00,WUHU21623XXSP,2013-11-19 00:51:00,
2013-11-18 18:56:00,28.0,22.9,29.23,WNW,292,0.0,0.0,81,0.00,,,0.00,WUHU21623XXSP,2013-11-19 00:56:00,
2013-11-18 19:01:00,28.0,22.9,29.23,WNW,292,0.0,0.0,81,0.00,,,0.00,WUHU21623XXSP,2013-11-19 01:01:00,
2013-11-18 19:06:00,27.7,22.6,29.23,WNW,292,0.0,0.0,81,0.00,,,0.00,WUHU21623XXSP,2013-11-19 01:06:00,
2013-11-18 19:11:00,27.7,22.9,29.23,WNW,292,0.0,0.0,82,0.00,,,0.00,WUHU21623XXSP,2013-11-19 01:11:00,
2013-11-18 19:16:00,27.5,22.7,29.23,West,270,0.0,0.0,82,0.00,,,0.00,WUHU21623XXSP,2013-11-19 01:16:00,
2013-11-18 19:21:00,27.5,22.7,29.23,West,270,0.0,0.0,82,0.00,,,0.00,WUHU21623XXSP,2013-11-19 01:21:00,
2013-11-18 19:26:00,27.7,22.9,29.23,WNW,292,0.0,0.0,82,0.00,,,0.00,WUHU21623XXSP,2013-11-19 01:26:00,
2013-11-18 19:31:00,27.7,23.1,29.23,West,270,0.0,0.0,83,0.00,,,0.00,WUHU21623XXSP,2013-11-19 01:31:00,
2013-11-18 19:36:00,27.7,23.1,29.24,WNW,292,0.0,0.0,83,0.00,,,0.00,WUHU21623XXSP,2013-11-19 01:36:00,
2013-11-18 19:41:00,27.5,23.0,29.24,WNW,292,0.0,0.0,83,0.00,,,0.00,WUHU21623XXSP,2013-11-19 01:41:00,
2013-11-18 19:45:00,27.5,23.0,29.25,WNW,292,0.0,0.0,83,0.00,,,0.00,WUHU21623XXSP,2013-11-19 01:45:00,
2013-11-18 19:50:00,27.1,22.6,29.25,West,270,0.0,0.0,83,0.00,,,0.00,WUHU21623XXSP,2013-11-19 01:50:00,
2013-11-18 19:55:00,27.1,22.6,29.25,West,270,0.0,0.0,83,0.00,,,0.00,WUHU21623XXSP,2013-11-19 01:55:00,
2013-11-18 20:00:00,26.8,22.2,29.25,West,270,0.0,0.0,83,0.00,,,0.00,WUHU21623XXSP,2013-11-19 02:00:00,
2013-11-18 20:05:00,26.8,22.5,29.25,WNW,292,0.0,0.0,84,0.00,,,0.00,WUHU21623XXSP,2013-11-19 02:05:00,
2013-11-18 20:10:00,26.8,22.5,29.26,WNW,292,0.0,0.0,84,0.00,,,0.00,WUHU21623XXSP,2013-11-19 02:10:00,
2013-11-18 20:15:00,26.8,22.5,29.26,WNW,292,0.0,0.0,84,0.00,,,0.00,WUHU21623XXSP,2013-11-19 02:15:00,
2013-11-18 20:20:00,26.4,22.2,29.26,WNW,292,0.0,0.0,84,0.00,,,0.00,WUHU21623XXSP,2013-11-19 02:20:00,
2013-11-18 20:25:00,26.4,22.2,29.26,WNW,292,0.0,0.0,84,0.00,,,0.00,WUHU21623XXSP,2013-11-19 02:25:00,
2013-11-18 20:30:00,26.4,22.2,29.27,WNW,292,0.0,0.0,84,0.00,,,0.00,WUHU21623XXSP,2013-11-19 02:30:00,
2013-11-18 20:35:00,26.6,22.4,29.26,WNW,292,0.0,0.0,84,0.00,,,0.00,WUHU21623XXSP,2013-11-19 02:35:00,
2013-11-18 20:40:00,26.6,22.4,29.26,NW,315,0.0,0.0,84,0.00,,,0.00,WUHU21623XXSP,2013-11-19 02:40:00,
2013-11-18 20:45:00,26.4,22.2,29.26,NW,315,0.0,0.0,84,0.00,,,0.00,WUHU21623XXSP,2013-11-19 02:45:00,
2013-11-18 20:50:00,26.2,22.0,29.27,NW,315,0.0,0.0,84,0.00,,,0.00,WUHU21623XXSP,2013-11-19 02:50:00,
2013-11-18 20:55:00,26.2,22.0,29.27,NW,315,0.0,0.0,84,0.00,,,0.00,WUHU21623XXSP,2013-11-19 02:55:00,
2013-11-18 21:00:00,26.1,22.1,29.28,NW,315,0.0,0.0,85,0.00,,,0.00,WUHU21623XXSP,2013-11-19 03:00:00,
2013-11-18 21:08:00,25.9,22.0,29.28,WNW,292,0.0,0.0,85,0.00,,,0.00,WUHU21623XXSP,2013-11-19 03:08:00,
2013-11-18 21:13:00,26.1,22.1,29.28,WNW,292,0.0,0.0,85,0.00,,,0.00,WUHU21623XXSP,2013-11-19 03:13:00,
2013-11-18 21:18:00,25.9,22.0,29.28,WNW,292,0.0,0.0,85,0.00,,,0.00,WUHU21623XXSP,2013-11-19 03:18:00,
2013-11-18 21:34:00,25.5,21.9,29.28,WNW,293,0.0,0.0,86,0.00,,,0.00,WUHU21623XXSP,2013-11-19 03:34:00,
2013-11-18 22:34:00,25.0,21.6,29.28,WSW,248,0.0,0.0,87,0.00,,,0.00,WUHU21623XXSP,2013-11-19 04:34:00,
2013-11-18 23:34:00,24.1,20.8,29.29,WSW,248,0.0,0.0,87,0.00,,,0.00,WUHU21623XXSP,2013-11-19 05:34:00,